createdAt,value
2022-08-26T00:02:15.928Z,93.60
2022-08-26T00:04:46.502Z,93.70
2022-08-26T00:07:13.274Z,93.70
2022-08-26T00:09:40.391Z,93.70
2022-08-26T00:12:07.588Z,93.70
2022-08-26T00:14:35.779Z,93.70
2022-08-26T00:17:02.603Z,93.80
2022-08-26T00:19:29.484Z,93.90
2022-08-26T00:21:56.330Z,93.90
2022-08-26T00:24:23.540Z,93.90
2022-08-26T00:26:50.672Z,93.90
2022-08-26T00:29:18.675Z,93.90
2022-08-26T00:31:45.769Z,94.00
2022-08-26T00:34:13.134Z,94.00
2022-08-26T00:36:40.950Z,94.00
2022-08-26T00:39:07.885Z,94.00
2022-08-26T00:41:35.934Z,94.10
2022-08-26T00:44:03.043Z,94.10
2022-08-26T00:46:31.893Z,94.10
2022-08-26T00:49:11.939Z,94.20
2022-08-26T00:51:44.555Z,94.20
2022-08-26T00:54:12.422Z,94.30
2022-08-26T00:57:00.171Z,94.30
2022-08-26T00:59:27.353Z,94.30
2022-08-26T01:01:54.271Z,94.30
2022-08-26T01:04:21.994Z,94.30
2022-08-26T01:06:49.635Z,94.30
2022-08-26T01:09:16.709Z,94.30
2022-08-26T01:11:44.139Z,94.40
2022-08-26T01:14:12.496Z,94.40
2022-08-26T01:16:39.313Z,94.40
2022-08-26T01:19:33.650Z,94.40
2022-08-26T01:22:05.092Z,94.40
2022-08-26T01:24:31.937Z,94.30
2022-08-26T01:27:05.135Z,94.30
2022-08-26T01:29:32.713Z,94.30
2022-08-26T01:31:59.644Z,94.30
2022-08-26T01:34:31.235Z,94.40
2022-08-26T01:37:15.760Z,94.40
2022-08-26T01:39:43.038Z,94.40
2022-08-26T01:42:13.213Z,94.40
2022-08-26T01:44:42.384Z,94.40
2022-08-26T01:47:10.588Z,94.40
2022-08-26T01:49:37.372Z,94.50
2022-08-26T01:52:04.810Z,94.80
2022-08-26T01:54:31.831Z,94.50
2022-08-26T01:56:58.843Z,94.60
2022-08-26T01:59:25.636Z,94.60
2022-08-26T02:01:52.736Z,94.60
2022-08-26T02:04:33.276Z,94.60
2022-08-26T02:07:02.783Z,94.70
2022-08-26T02:09:30.463Z,94.70
2022-08-26T02:11:58.982Z,94.70
2022-08-26T02:14:33.658Z,94.70
2022-08-26T02:17:01.525Z,94.70
2022-08-26T02:19:30.695Z,94.70
2022-08-26T02:21:59.516Z,94.80
2022-08-26T02:24:28.825Z,94.80
2022-08-26T02:26:56.656Z,94.80
2022-08-26T02:29:34.556Z,94.80
2022-08-26T02:32:01.427Z,94.90
2022-08-26T02:34:32.243Z,94.90
2022-08-26T02:37:04.554Z,94.90
2022-08-26T02:39:32.482Z,94.90
2022-08-26T02:41:59.399Z,95.20
2022-08-26T02:44:26.472Z,94.90
2022-08-26T02:46:54.574Z,94.90
2022-08-26T02:49:21.840Z,94.90
2022-08-26T02:51:49.544Z,94.90
2022-08-26T02:54:17.587Z,95.00
2022-08-26T02:56:44.944Z,95.00
2022-08-26T02:59:14.538Z,95.10
2022-08-26T03:01:41.334Z,95.10
2022-08-26T03:04:10.271Z,95.10
2022-08-26T03:06:37.571Z,95.10
2022-08-26T03:09:05.084Z,95.10
2022-08-26T03:11:33.152Z,95.10
2022-08-26T03:14:01.819Z,95.20
2022-08-26T03:16:36.697Z,95.20
2022-08-26T03:19:04.259Z,95.20
2022-08-26T03:21:31.225Z,95.20
2022-08-26T03:23:58.784Z,95.20
2022-08-26T03:26:26.024Z,95.20
2022-08-26T03:29:11.400Z,95.30
2022-08-26T03:31:38.376Z,95.30
2022-08-26T03:34:05.287Z,95.30
2022-08-26T03:36:32.475Z,95.20
2022-08-26T03:39:02.251Z,95.30
2022-08-26T03:41:29.122Z,95.30
2022-08-26T03:44:01.035Z,95.30
2022-08-26T03:46:28.606Z,95.30
2022-08-26T03:48:55.589Z,95.30
2022-08-26T03:51:22.502Z,95.30
2022-08-26T03:53:51.095Z,95.40
2022-08-26T03:56:17.839Z,95.40
2022-08-26T03:58:44.760Z,95.40
2022-08-26T04:01:13.128Z,95.40
2022-08-26T04:03:59.973Z,95.40
2022-08-26T04:06:27.570Z,95.40
2022-08-26T04:08:56.035Z,95.40
2022-08-26T04:11:26.161Z,95.40
2022-08-26T04:13:56.224Z,95.40
2022-08-26T04:16:23.794Z,95.40
2022-08-26T04:18:52.895Z,95.40
2022-08-26T04:21:19.793Z,95.40
2022-08-26T04:23:48.096Z,95.50
2022-08-26T04:26:15.908Z,95.50
2022-08-26T04:28:42.815Z,95.50
2022-08-26T04:31:14.752Z,95.50
2022-08-26T04:33:43.402Z,95.50
2022-08-26T04:36:10.637Z,95.50
2022-08-26T04:38:37.681Z,95.50
2022-08-26T04:41:05.595Z,95.50
2022-08-26T04:43:42.658Z,95.50
2022-08-26T04:46:10.349Z,95.50
2022-08-26T04:48:41.137Z,95.50
2022-08-26T04:51:09.696Z,95.50
2022-08-26T04:53:37.147Z,95.60
2022-08-26T04:56:04.555Z,95.60
2022-08-26T04:58:31.648Z,95.60
2022-08-26T05:00:58.679Z,95.60
2022-08-26T05:03:30.337Z,95.70
2022-08-26T05:05:57.784Z,95.70
2022-08-26T05:08:24.608Z,95.70
2022-08-26T05:10:56.165Z,95.70
2022-08-26T05:13:27.530Z,95.70
2022-08-26T05:15:54.601Z,95.70
2022-08-26T05:18:27.569Z,95.70
2022-08-26T05:20:54.964Z,95.70
2022-08-26T05:23:22.870Z,95.70
2022-08-26T05:25:53.592Z,95.70
2022-08-26T05:28:22.753Z,95.80
2022-08-26T05:30:49.879Z,95.80
2022-08-26T05:33:17.510Z,95.80
2022-08-26T05:35:44.479Z,95.80
2022-08-26T05:38:14.465Z,95.90
2022-08-26T05:40:44.796Z,95.90
2022-08-26T05:43:13.414Z,95.90
2022-08-26T05:45:46.528Z,95.90
2022-08-26T05:48:16.136Z,96.00
2022-08-26T05:50:48.034Z,96.00
2022-08-26T05:53:17.730Z,96.00
2022-08-26T05:55:49.516Z,96.00
2022-08-26T05:58:17.634Z,96.00
2022-08-26T06:00:45.262Z,96.00
2022-08-26T06:03:12.219Z,96.00
2022-08-26T06:05:39.826Z,96.10
2022-08-26T06:08:14.149Z,96.30
2022-08-26T06:10:45.125Z,96.00
2022-08-26T06:13:13.171Z,96.10
2022-08-26T06:15:50.083Z,96.10
2022-08-26T06:18:19.792Z,96.10
2022-08-26T06:20:57.021Z,96.10
2022-08-26T06:23:44.296Z,96.10
2022-08-26T06:26:11.336Z,96.10
2022-08-26T06:28:38.213Z,96.10
2022-08-26T06:31:06.027Z,96.10
2022-08-26T06:33:33.074Z,96.10
2022-08-26T06:36:01.133Z,96.10
2022-08-26T06:38:28.208Z,96.10
2022-08-26T06:40:55.036Z,96.10
2022-08-26T06:43:23.805Z,96.10
2022-08-26T06:45:51.019Z,96.00
2022-08-26T06:48:19.612Z,96.10
2022-08-26T06:50:46.802Z,96.30
2022-08-26T06:53:17.252Z,96.10
2022-08-26T06:55:46.353Z,96.20
2022-08-26T06:58:14.219Z,96.20
2022-08-26T07:00:47.343Z,96.20
2022-08-26T07:03:16.564Z,96.10
2022-08-26T07:05:45.023Z,96.20
2022-08-26T07:08:16.135Z,96.10
2022-08-26T07:10:44.207Z,96.10
2022-08-26T07:13:12.453Z,96.00
2022-08-26T07:15:42.629Z,95.90
2022-08-26T07:18:09.416Z,95.90
2022-08-26T07:20:42.553Z,95.90
2022-08-26T07:23:11.770Z,96.00
2022-08-26T07:25:40.029Z,96.00
2022-08-26T07:28:07.027Z,96.00
2022-08-26T07:30:34.179Z,95.90
2022-08-26T07:33:00.982Z,95.80
2022-08-26T07:35:27.815Z,95.70
2022-08-26T07:37:57.063Z,95.70
2022-08-26T07:40:24.172Z,95.70
2022-08-26T07:42:51.095Z,95.70
2022-08-26T07:45:19.553Z,95.80
2022-08-26T07:47:46.395Z,95.70
2022-08-26T07:50:13.438Z,95.70
2022-08-26T07:52:42.727Z,95.70
2022-08-26T07:55:10.504Z,95.60
2022-08-26T07:57:37.570Z,95.60
2022-08-26T08:00:08.695Z,95.50
2022-08-26T08:02:35.656Z,95.40
2022-08-26T08:05:02.607Z,95.40
2022-08-26T08:07:44.541Z,95.30
2022-08-26T08:10:14.392Z,95.20
2022-08-26T08:12:41.463Z,95.10
2022-08-26T08:15:09.076Z,95.00
2022-08-26T08:17:36.855Z,94.80
2022-08-26T08:20:05.263Z,94.70
2022-08-26T08:22:32.515Z,94.60
2022-08-26T08:24:59.741Z,94.50
2022-08-26T08:27:28.978Z,94.30
2022-08-26T08:29:57.884Z,94.10
2022-08-26T08:32:24.724Z,94.00
2022-08-26T08:34:52.969Z,93.80
2022-08-26T08:37:20.001Z,93.50
2022-08-26T08:39:47.849Z,93.30
2022-08-26T08:42:42.364Z,93.10
2022-08-26T08:45:28.166Z,92.80
2022-08-26T08:47:59.461Z,92.70
2022-08-26T08:50:37.835Z,92.50
2022-08-26T08:53:11.212Z,92.40
2022-08-26T08:56:05.476Z,92.20
2022-08-26T08:58:56.683Z,91.90
2022-08-26T09:01:52.301Z,91.80
2022-08-26T09:05:15.572Z,91.40
2022-08-26T09:07:47.142Z,91.00
2022-08-26T09:10:19.626Z,90.90
2022-08-26T09:12:46.462Z,90.80
2022-08-26T09:15:34.625Z,90.60
2022-08-26T09:18:13.301Z,90.20
2022-08-26T09:21:09.197Z,90.00
2022-08-26T09:23:41.930Z,89.50
2022-08-26T09:26:39.223Z,89.10
2022-08-26T09:29:09.030Z,88.10
2022-08-26T09:31:37.129Z,87.80
2022-08-26T09:34:26.859Z,87.00
2022-08-26T09:36:55.929Z,85.90
2022-08-26T09:39:29.169Z,85.10
2022-08-26T09:42:14.337Z,83.70
2022-08-26T09:45:05.375Z,82.40
2022-08-26T09:47:54.218Z,80.90
2022-08-26T09:50:30.008Z,80.00
2022-08-26T09:53:12.639Z,79.30
2022-08-26T09:55:42.029Z,78.00
2022-08-26T09:58:13.003Z,77.60
2022-08-26T10:01:01.491Z,76.70
2022-08-26T10:03:33.714Z,75.60
2022-08-26T10:06:08.316Z,74.70
2022-08-26T10:08:58.021Z,73.70
2022-08-26T10:11:47.687Z,72.20
2022-08-26T10:14:30.578Z,71.30
2022-08-26T10:17:03.423Z,70.70
2022-08-26T10:19:57.009Z,69.90
2022-08-26T10:22:26.192Z,68.80
2022-08-26T10:24:57.981Z,68.90
2022-08-26T10:27:49.606Z,67.80
2022-08-26T10:30:21.829Z,67.40
2022-08-26T10:32:58.463Z,67.00
2022-08-26T10:35:27.305Z,66.60
2022-08-26T10:38:02.569Z,66.20
2022-08-26T10:41:02.964Z,65.20
2022-08-26T10:44:06.729Z,64.80
2022-08-26T10:46:44.828Z,63.80
2022-08-26T10:49:17.473Z,63.10
2022-08-26T10:52:02.675Z,62.50
2022-08-26T10:54:55.407Z,62.00
2022-08-26T10:57:41.384Z,61.60
2022-08-26T11:00:37.968Z,61.10
2022-08-26T11:03:27.426Z,60.90
2022-08-26T11:06:16.681Z,59.90
2022-08-26T11:08:52.765Z,59.70
2022-08-26T11:11:42.801Z,59.30
2022-08-26T11:14:12.459Z,59.30
2022-08-26T11:16:44.917Z,59.20
2022-08-26T11:19:59.604Z,58.80
2022-08-26T11:22:34.916Z,58.90
2022-08-26T11:25:06.849Z,58.90
2022-08-26T11:27:36.398Z,58.00
2022-08-26T11:30:29.497Z,57.20
2022-08-26T11:32:58.024Z,57.00
2022-08-26T11:35:25.389Z,57.00
2022-08-26T11:37:55.690Z,56.30
2022-08-26T11:40:34.093Z,55.60
2022-08-26T11:43:22.767Z,55.60
2022-08-26T11:46:00.714Z,55.70
2022-08-26T11:48:33.882Z,55.10
2022-08-26T11:51:03.609Z,54.80
2022-08-26T11:53:33.471Z,54.20
2022-08-26T11:56:02.256Z,53.20
2022-08-26T11:58:30.287Z,52.30
2022-08-26T12:01:03.764Z,51.90
2022-08-26T12:03:51.737Z,51.30
2022-08-26T12:06:30.796Z,50.50
2022-08-26T12:09:04.146Z,50.30
2022-08-26T12:11:36.564Z,50.00
2022-08-26T12:14:09.835Z,49.50
2022-08-26T12:16:38.869Z,49.00
2022-08-26T12:19:41.767Z,48.80
2022-08-26T12:22:15.661Z,48.30
2022-08-26T12:24:45.699Z,48.10
2022-08-26T12:27:26.866Z,47.50
2022-08-26T12:30:02.915Z,47.00
2022-08-26T12:32:32.904Z,46.30
2022-08-26T12:35:24.547Z,45.90
2022-08-26T12:37:55.577Z,45.00
2022-08-26T12:40:35.828Z,45.30
2022-08-26T12:43:04.633Z,44.60
2022-08-26T12:45:36.999Z,44.70
2022-08-26T12:48:25.388Z,44.20
2022-08-26T12:50:53.060Z,43.80
2022-08-26T12:53:26.851Z,43.90
2022-08-26T12:56:05.151Z,43.90
2022-08-26T12:58:43.775Z,43.80
2022-08-26T13:01:11.248Z,43.80
2022-08-26T13:03:46.147Z,43.30
2022-08-26T13:06:23.003Z,42.80
2022-08-26T13:09:08.285Z,42.50
2022-08-26T13:11:56.416Z,42.50
2022-08-26T13:14:24.786Z,42.60
2022-08-26T13:16:52.931Z,42.40
2022-08-26T13:19:22.164Z,41.90
2022-08-26T13:21:50.442Z,41.90
2022-08-26T13:24:22.557Z,41.70
2022-08-26T13:26:50.175Z,41.10
2022-08-26T13:29:18.232Z,41.30
2022-08-26T13:31:46.251Z,40.90
2022-08-26T13:34:15.369Z,40.40
2022-08-26T13:37:00.234Z,40.20
2022-08-26T13:39:27.535Z,40.40
2022-08-26T13:41:54.566Z,40.50
2022-08-26T13:44:24.172Z,40.60
2022-08-26T13:46:51.314Z,40.40
2022-08-26T13:49:18.296Z,40.40
2022-08-26T13:51:45.711Z,40.70
2022-08-26T13:54:12.796Z,41.20
2022-08-26T13:56:39.739Z,41.40
2022-08-26T13:59:07.009Z,41.40
2022-08-26T14:01:35.097Z,41.50
2022-08-26T14:04:03.282Z,41.20
2022-08-26T14:06:30.414Z,40.80
2022-08-26T14:08:57.384Z,40.50
2022-08-26T14:11:25.306Z,40.50
2022-08-26T14:13:52.512Z,40.60
2022-08-26T14:16:26.276Z,40.70
2022-08-26T14:18:53.197Z,40.30
2022-08-26T14:21:20.687Z,40.30
2022-08-26T14:23:50.690Z,40.60
2022-08-26T14:26:28.157Z,40.40
2022-08-26T14:29:00.580Z,40.20
2022-08-26T14:31:29.468Z,40.00
2022-08-26T14:33:58.682Z,40.00
2022-08-26T14:36:30.500Z,40.10
2022-08-26T14:39:00.864Z,39.90
2022-08-26T14:41:29.198Z,39.70
2022-08-26T14:44:00.275Z,39.70
2022-08-26T14:46:32.014Z,39.40
2022-08-26T14:49:01.747Z,39.00
2022-08-26T14:51:29.523Z,39.00
2022-08-26T14:54:16.315Z,38.90
2022-08-26T14:56:50.469Z,38.70
2022-08-26T14:59:22.219Z,38.90
2022-08-26T15:01:52.724Z,39.30
2022-08-26T15:04:20.188Z,39.50
2022-08-26T15:06:51.129Z,39.50
2022-08-26T15:09:21.496Z,39.50
2022-08-26T15:11:48.804Z,39.80
2022-08-26T15:14:19.650Z,40.30
2022-08-26T15:16:50.891Z,40.60
2022-08-26T15:19:17.927Z,40.80
2022-08-26T15:21:45.755Z,41.00
2022-08-26T15:24:13.789Z,41.20
2022-08-26T15:26:40.706Z,41.40
2022-08-26T15:29:08.171Z,41.50
2022-08-26T15:31:37.588Z,41.60
2022-08-26T15:34:06.804Z,41.90
2022-08-26T15:36:37.033Z,42.10
2022-08-26T15:39:05.103Z,42.50
2022-08-26T15:41:31.976Z,42.80
2022-08-26T15:44:03.443Z,42.80
2022-08-26T15:46:33.974Z,43.00
2022-08-26T15:49:06.363Z,43.20
2022-08-26T15:51:35.947Z,43.60
2022-08-26T15:54:16.764Z,43.90
2022-08-26T15:56:44.107Z,43.90
2022-08-26T15:59:11.614Z,44.10
2022-08-26T16:01:39.146Z,44.30
2022-08-26T16:04:06.982Z,44.50
2022-08-26T16:06:34.901Z,44.60
2022-08-26T16:09:01.921Z,44.80
2022-08-26T16:11:29.252Z,44.90
2022-08-26T16:13:56.105Z,45.00
2022-08-26T16:16:25.653Z,45.00
2022-08-26T16:18:53.136Z,45.10
2022-08-26T16:21:27.863Z,45.50
2022-08-26T16:23:58.467Z,45.80
2022-08-26T16:26:32.016Z,46.00
2022-08-26T16:29:03.630Z,46.10
2022-08-26T16:31:33.057Z,46.20
2022-08-26T16:34:00.388Z,46.50
2022-08-26T16:36:27.583Z,46.70
2022-08-26T16:38:56.406Z,46.80
2022-08-26T16:41:30.923Z,46.80
2022-08-26T16:43:58.349Z,46.90
2022-08-26T16:46:26.252Z,47.20
2022-08-26T16:48:57.112Z,47.40
2022-08-26T16:51:27.128Z,47.50
2022-08-26T16:53:55.200Z,48.30
2022-08-26T16:56:24.250Z,48.10
2022-08-26T16:59:01.118Z,48.30
2022-08-26T17:01:30.229Z,48.50
2022-08-26T17:03:57.547Z,48.70
2022-08-26T17:06:30.515Z,48.80
2022-08-26T17:08:57.431Z,49.00
2022-08-26T17:11:24.490Z,49.00
2022-08-26T17:13:51.733Z,49.10
2022-08-26T17:16:19.734Z,49.20
2022-08-26T17:18:48.199Z,49.20
2022-08-26T17:21:17.862Z,49.40
2022-08-26T17:23:45.171Z,49.60
2022-08-26T17:26:15.290Z,49.60
2022-08-26T17:28:45.629Z,49.70
2022-08-26T17:31:13.182Z,49.80
2022-08-26T17:33:41.009Z,49.90
2022-08-26T17:36:11.245Z,50.00
2022-08-26T17:38:38.228Z,50.00
2022-08-26T17:41:12.646Z,50.10
2022-08-26T17:43:43.155Z,50.10
2022-08-26T17:46:13.234Z,50.20
2022-08-26T17:48:43.405Z,50.30
2022-08-26T17:51:12.868Z,50.40
2022-08-26T17:53:41.515Z,50.40
2022-08-26T17:56:18.659Z,50.40
2022-08-26T17:58:51.657Z,50.50
2022-08-26T18:01:20.297Z,50.50
2022-08-26T18:03:47.736Z,50.50
2022-08-26T18:06:17.913Z,50.60
2022-08-26T18:08:45.303Z,50.70
2022-08-26T18:11:14.352Z,50.80
2022-08-26T18:13:47.112Z,50.90
2022-08-26T18:16:15.450Z,51.00
2022-08-26T18:18:43.271Z,51.10
2022-08-26T18:21:18.449Z,51.20
2022-08-26T18:23:45.998Z,51.40
2022-08-26T18:26:25.570Z,51.60
2022-08-26T18:28:52.946Z,51.60
2022-08-26T18:31:20.398Z,51.80
2022-08-26T18:33:47.302Z,52.00
2022-08-26T18:36:23.479Z,52.10
2022-08-26T18:38:51.106Z,52.20
2022-08-26T18:41:20.842Z,52.40
2022-08-26T18:43:50.474Z,52.40
2022-08-26T18:46:25.139Z,52.60
2022-08-26T18:48:54.034Z,52.80
2022-08-26T18:51:26.458Z,52.90
2022-08-26T18:53:53.337Z,53.10
2022-08-26T18:56:20.589Z,53.40
2022-08-26T18:58:48.009Z,53.60
2022-08-26T19:01:16.160Z,53.90
2022-08-26T19:03:46.098Z,54.10
2022-08-26T19:06:17.541Z,54.30
2022-08-26T19:08:44.966Z,54.50
2022-08-26T19:11:14.550Z,54.60
2022-08-26T19:13:42.887Z,54.70
2022-08-26T19:16:20.576Z,54.80
2022-08-26T19:18:47.878Z,55.00
2022-08-26T19:21:14.957Z,55.20
2022-08-26T19:23:42.142Z,55.40
2022-08-26T19:26:09.123Z,55.50
2022-08-26T19:28:36.065Z,55.60
2022-08-26T19:31:02.955Z,55.70
2022-08-26T19:33:30.014Z,55.90
2022-08-26T19:35:57.112Z,56.00
2022-08-26T19:38:24.518Z,56.10
2022-08-26T19:40:54.817Z,56.10
2022-08-26T19:43:22.196Z,56.40
2022-08-26T19:45:49.757Z,56.50
2022-08-26T19:48:17.002Z,56.60
2022-08-26T19:50:47.742Z,56.80
2022-08-26T19:53:15.736Z,57.10
2022-08-26T19:55:43.122Z,57.30
2022-08-26T19:58:11.694Z,57.40
2022-08-26T20:00:42.962Z,57.60
2022-08-26T20:03:13.050Z,57.70
2022-08-26T20:05:43.232Z,57.90
2022-08-26T20:08:22.287Z,58.10
2022-08-26T20:10:54.228Z,58.40
2022-08-26T20:13:22.180Z,58.70
2022-08-26T20:15:49.151Z,58.90
2022-08-26T20:18:37.576Z,59.10
2022-08-26T20:21:23.302Z,59.20
2022-08-26T20:23:51.829Z,59.50
2022-08-26T20:26:19.192Z,59.70
2022-08-26T20:28:51.081Z,60.10
2022-08-26T20:31:23.593Z,60.20
2022-08-26T20:33:51.897Z,60.50
2022-08-26T20:36:22.695Z,60.70
2022-08-26T20:38:50.030Z,60.90
2022-08-26T20:41:17.682Z,61.20
2022-08-26T20:43:50.671Z,61.70
2022-08-26T20:46:20.300Z,62.30
2022-08-26T20:48:49.869Z,62.80
2022-08-26T20:51:17.179Z,63.40
2022-08-26T20:53:44.762Z,63.90
2022-08-26T20:56:13.259Z,64.50
2022-08-26T20:58:41.000Z,65.00
2022-08-26T21:01:18.557Z,65.60
2022-08-26T21:03:46.456Z,66.10
2022-08-26T21:06:13.869Z,66.60
2022-08-26T21:08:43.201Z,67.10
2022-08-26T21:11:13.867Z,67.60
2022-08-26T21:14:01.680Z,68.00
2022-08-26T21:16:29.104Z,68.30
2022-08-26T21:18:56.468Z,68.70
2022-08-26T21:21:27.914Z,69.10
2022-08-26T21:23:55.792Z,69.40
2022-08-26T21:26:32.092Z,69.80
2022-08-26T21:29:03.341Z,70.10
2022-08-26T21:31:32.030Z,70.60
2022-08-26T21:33:59.697Z,70.90
2022-08-26T21:36:26.864Z,71.20
2022-08-26T21:38:59.036Z,71.60
2022-08-26T21:41:26.675Z,71.90
2022-08-26T21:43:55.664Z,72.20
2022-08-26T21:46:23.593Z,72.50
2022-08-26T21:49:00.156Z,72.90
2022-08-26T21:51:29.471Z,73.20
2022-08-26T21:53:57.425Z,73.50
2022-08-26T21:56:28.749Z,73.80
2022-08-26T21:58:56.243Z,74.10
2022-08-26T22:01:27.482Z,74.30
2022-08-26T22:03:54.793Z,74.60
2022-08-26T22:06:23.894Z,74.80
2022-08-26T22:08:50.929Z,75.10
2022-08-26T22:11:18.873Z,75.30
2022-08-26T22:13:46.019Z,75.60
2022-08-26T22:16:13.571Z,75.80
2022-08-26T22:18:43.787Z,76.10
2022-08-26T22:21:14.530Z,76.30
2022-08-26T22:23:41.567Z,76.50
2022-08-26T22:26:09.669Z,76.60
2022-08-26T22:28:36.859Z,76.80
2022-08-26T22:31:03.910Z,76.90
2022-08-26T22:33:31.086Z,77.00
2022-08-26T22:35:58.122Z,77.10
2022-08-26T22:38:24.920Z,77.20
2022-08-26T22:40:58.604Z,77.30
2022-08-26T22:43:26.451Z,77.60
2022-08-26T22:45:53.750Z,77.70
2022-08-26T22:48:22.869Z,77.80
2022-08-26T22:50:50.290Z,77.90
2022-08-26T22:53:17.757Z,78.00
2022-08-26T22:55:44.949Z,78.20
2022-08-26T22:58:13.962Z,78.30
2022-08-26T23:00:42.103Z,78.40
2022-08-26T23:03:09.147Z,78.60
2022-08-26T23:05:36.232Z,78.70
2022-08-26T23:08:03.827Z,78.80
2022-08-26T23:10:31.212Z,79.00
2022-08-26T23:13:04.888Z,79.10
2022-08-26T23:15:35.005Z,79.10
2022-08-26T23:18:02.356Z,79.30
2022-08-26T23:20:32.089Z,79.40
2022-08-26T23:23:00.126Z,79.60
2022-08-26T23:25:31.896Z,79.70
2022-08-26T23:28:00.510Z,79.80
2022-08-26T23:30:32.243Z,80.00
2022-08-26T23:32:59.706Z,80.10
2022-08-26T23:35:33.758Z,80.30
2022-08-26T23:38:01.079Z,80.50
2022-08-26T23:40:33.611Z,80.50
2022-08-26T23:43:03.324Z,80.70
2022-08-26T23:45:30.761Z,80.90
2022-08-26T23:48:01.250Z,81.10
2022-08-26T23:50:49.947Z,81.30
2022-08-26T23:53:21.860Z,81.50
2022-08-26T23:55:50.738Z,81.70
2022-08-26T23:58:18.807Z,82.50
